sensor_id;sensor_type;location;lat;lon;timestamp;temperature;humidity
26821;DHT22;37186;51.394;5.454;2023-02-15T00:00:38;6.60;78.50
26821;DHT22;37186;51.394;5.454;2023-02-15T00:03:39;6.60;78.50
26821;DHT22;37186;51.394;5.454;2023-02-15T00:06:40;6.50;78.50
26821;DHT22;37186;51.394;5.454;2023-02-15T00:09:40;6.50;78.50
26821;DHT22;37186;51.394;5.454;2023-02-15T00:12:41;6.50;78.40
26821;DHT22;37186;51.394;5.454;2023-02-15T00:15:41;6.40;78.30
26821;DHT22;37186;51.394;5.454;2023-02-15T00:18:42;6.40;78.40
26821;DHT22;37186;51.394;5.454;2023-02-15T00:21:43;6.40;78.40
26821;DHT22;37186;51.394;5.454;2023-02-15T00:24:44;6.40;78.40
26821;DHT22;37186;51.394;5.454;2023-02-15T00:27:44;6.30;78.30
26821;DHT22;37186;51.394;5.454;2023-02-15T00:30:45;6.30;78.30
26821;DHT22;37186;51.394;5.454;2023-02-15T00:33:45;6.30;78.30
26821;DHT22;37186;51.394;5.454;2023-02-15T00:36:46;6.30;78.40
26821;DHT22;37186;51.394;5.454;2023-02-15T00:39:46;6.30;78.30
26821;DHT22;37186;51.394;5.454;2023-02-15T00:42:47;6.20;78.30
26821;DHT22;37186;51.394;5.454;2023-02-15T00:45:48;6.20;78.30
26821;DHT22;37186;51.394;5.454;2023-02-15T00:48:49;6.20;78.30
26821;DHT22;37186;51.394;5.454;2023-02-15T00:51:50;6.20;78.30
26821;DHT22;37186;51.394;5.454;2023-02-15T00:54:50;6.10;78.30
26821;DHT22;37186;51.394;5.454;2023-02-15T00:57:51;6.10;78.30
26821;DHT22;37186;51.394;5.454;2023-02-15T01:00:52;6.10;78.30
26821;DHT22;37186;51.394;5.454;2023-02-15T01:03:53;6.10;78.20
26821;DHT22;37186;51.394;5.454;2023-02-15T01:06:53;6.00;78.20
26821;DHT22;37186;51.394;5.454;2023-02-15T01:09:54;6.00;78.30
26821;DHT22;37186;51.394;5.454;2023-02-15T01:12:55;6.00;78.30
26821;DHT22;37186;51.394;5.454;2023-02-15T01:15:56;6.00;78.30
26821;DHT22;37186;51.394;5.454;2023-02-15T01:18:56;5.90;78.20
26821;DHT22;37186;51.394;5.454;2023-02-15T01:21:57;5.90;78.20
26821;DHT22;37186;51.394;5.454;2023-02-15T01:24:57;5.90;78.30
26821;DHT22;37186;51.394;5.454;2023-02-15T01:27:58;5.90;78.30
26821;DHT22;37186;51.394;5.454;2023-02-15T01:30:58;5.90;78.30
26821;DHT22;37186;51.394;5.454;2023-02-15T01:33:59;5.90;78.20
26821;DHT22;37186;51.394;5.454;2023-02-15T01:37:00;5.80;78.20
26821;DHT22;37186;51.394;5.454;2023-02-15T01:40:05;5.80;78.30
26821;DHT22;37186;51.394;5.454;2023-02-15T01:43:10;5.80;78.20
26821;DHT22;37186;51.394;5.454;2023-02-15T01:46:13;5.80;78.30
26821;DHT22;37186;51.394;5.454;2023-02-15T01:49:17;5.80;78.30
26821;DHT22;37186;51.394;5.454;2023-02-15T01:52:18;5.80;78.30
26821;DHT22;37186;51.394;5.454;2023-02-15T01:55:21;5.70;78.30
26821;DHT22;37186;51.394;5.454;2023-02-15T01:58:25;5.70;78.10
26821;DHT22;37186;51.394;5.454;2023-02-15T02:01:27;5.70;78.20
26821;DHT22;37186;51.394;5.454;2023-02-15T02:04:41;5.70;78.10
26821;DHT22;37186;51.394;5.454;2023-02-15T02:07:44;5.70;78.20
26821;DHT22;37186;51.394;5.454;2023-02-15T02:10:45;5.60;78.20
26821;DHT22;37186;51.394;5.454;2023-02-15T02:13:46;5.60;78.10
26821;DHT22;37186;51.394;5.454;2023-02-15T02:16:52;5.60;78.20
26821;DHT22;37186;51.394;5.454;2023-02-15T02:23:37;5.50;78.00
26821;DHT22;37186;51.394;5.454;2023-02-15T02:27:14;5.50;78.10
26821;DHT22;37186;51.394;5.454;2023-02-15T02:30:44;5.50;78.10
26821;DHT22;37186;51.394;5.454;2023-02-15T02:41:07;5.40;78.00
26821;DHT22;37186;51.394;5.454;2023-02-15T02:44:19;5.40;78.00
26821;DHT22;37186;51.394;5.454;2023-02-15T02:47:46;5.40;78.10
26821;DHT22;37186;51.394;5.454;2023-02-15T02:50:47;5.40;78.10
26821;DHT22;37186;51.394;5.454;2023-02-15T02:53:51;5.40;78.00
26821;DHT22;37186;51.394;5.454;2023-02-15T02:56:55;5.30;78.00
26821;DHT22;37186;51.394;5.454;2023-02-15T02:59:58;5.30;78.00
26821;DHT22;37186;51.394;5.454;2023-02-15T03:03:16;5.30;78.00
26821;DHT22;37186;51.394;5.454;2023-02-15T03:06:46;5.30;78.00
26821;DHT22;37186;51.394;5.454;2023-02-15T03:09:55;5.30;78.00
26821;DHT22;37186;51.394;5.454;2023-02-15T03:12:57;5.20;78.00
26821;DHT22;37186;51.394;5.454;2023-02-15T03:15:58;5.20;78.00
26821;DHT22;37186;51.394;5.454;2023-02-15T03:19:28;5.20;78.00
26821;DHT22;37186;51.394;5.454;2023-02-15T03:22:38;5.20;77.90
26821;DHT22;37186;51.394;5.454;2023-02-15T03:25:42;5.20;77.90
26821;DHT22;37186;51.394;5.454;2023-02-15T03:28:46;5.10;77.90
26821;DHT22;37186;51.394;5.454;2023-02-15T03:31:53;5.10;77.80
26821;DHT22;37186;51.394;5.454;2023-02-15T03:34:55;5.10;77.90
26821;DHT22;37186;51.394;5.454;2023-02-15T03:38:00;5.10;77.80
26821;DHT22;37186;51.394;5.454;2023-02-15T03:41:02;5.10;77.80
26821;DHT22;37186;51.394;5.454;2023-02-15T03:44:37;5.10;77.80
26821;DHT22;37186;51.394;5.454;2023-02-15T03:47:37;5.10;77.90
26821;DHT22;37186;51.394;5.454;2023-02-15T03:50:39;5.00;77.80
26821;DHT22;37186;51.394;5.454;2023-02-15T03:54:17;5.00;77.80
26821;DHT22;37186;51.394;5.454;2023-02-15T03:57:39;5.00;77.80
26821;DHT22;37186;51.394;5.454;2023-02-15T04:01:00;5.00;77.80
26821;DHT22;37186;51.394;5.454;2023-02-15T04:04:36;5.00;77.80
26821;DHT22;37186;51.394;5.454;2023-02-15T04:07:36;5.00;77.90
26821;DHT22;37186;51.394;5.454;2023-02-15T04:10:37;5.00;77.80
26821;DHT22;37186;51.394;5.454;2023-02-15T04:13:52;4.90;77.70
26821;DHT22;37186;51.394;5.454;2023-02-15T04:16:56;4.90;77.80
26821;DHT22;37186;51.394;5.454;2023-02-15T04:19:57;4.90;77.80
26821;DHT22;37186;51.394;5.454;2023-02-15T04:23:16;4.90;77.80
26821;DHT22;37186;51.394;5.454;2023-02-15T04:26:35;4.90;77.80
26821;DHT22;37186;51.394;5.454;2023-02-15T04:29:36;4.90;77.80
26821;DHT22;37186;51.394;5.454;2023-02-15T04:32:36;4.90;77.80
26821;DHT22;37186;51.394;5.454;2023-02-15T04:35:37;4.90;77.80
26821;DHT22;37186;51.394;5.454;2023-02-15T04:38:38;4.90;77.80
26821;DHT22;37186;51.394;5.454;2023-02-15T04:41:39;4.90;77.80
26821;DHT22;37186;51.394;5.454;2023-02-15T04:44:40;4.80;77.80
26821;DHT22;37186;51.394;5.454;2023-02-15T04:47:41;4.80;77.80
26821;DHT22;37186;51.394;5.454;2023-02-15T04:50:42;4.80;77.80
26821;DHT22;37186;51.394;5.454;2023-02-15T04:53:42;4.80;77.80
26821;DHT22;37186;51.394;5.454;2023-02-15T04:56:43;4.80;77.70
26821;DHT22;37186;51.394;5.454;2023-02-15T04:59:43;4.80;77.70
26821;DHT22;37186;51.394;5.454;2023-02-15T05:02:44;4.80;77.80
26821;DHT22;37186;51.394;5.454;2023-02-15T05:05:44;4.80;77.80
26821;DHT22;37186;51.394;5.454;2023-02-15T05:08:45;4.70;77.70
26821;DHT22;37186;51.394;5.454;2023-02-15T05:11:45;4.70;77.70
26821;DHT22;37186;51.394;5.454;2023-02-15T05:14:46;4.70;77.70
26821;DHT22;37186;51.394;5.454;2023-02-15T05:17:47;4.70;77.70
26821;DHT22;37186;51.394;5.454;2023-02-15T05:20:48;4.70;77.70
26821;DHT22;37186;51.394;5.454;2023-02-15T05:23:49;4.70;77.70
26821;DHT22;37186;51.394;5.454;2023-02-15T05:26:49;4.70;77.70
26821;DHT22;37186;51.394;5.454;2023-02-15T05:30:09;4.60;77.70
26821;DHT22;37186;51.394;5.454;2023-02-15T05:33:11;4.60;77.70
26821;DHT22;37186;51.394;5.454;2023-02-15T05:36:12;4.60;77.70
26821;DHT22;37186;51.394;5.454;2023-02-15T05:39:13;4.60;77.70
26821;DHT22;37186;51.394;5.454;2023-02-15T05:42:13;4.60;77.70
26821;DHT22;37186;51.394;5.454;2023-02-15T05:45:14;4.60;78.50
26821;DHT22;37186;51.394;5.454;2023-02-15T05:48:16;4.60;77.70
26821;DHT22;37186;51.394;5.454;2023-02-15T05:51:16;4.60;77.80
26821;DHT22;37186;51.394;5.454;2023-02-15T05:54:17;4.50;77.70
26821;DHT22;37186;51.394;5.454;2023-02-15T05:57:17;4.50;77.70
26821;DHT22;37186;51.394;5.454;2023-02-15T06:00:18;4.50;77.70
26821;DHT22;37186;51.394;5.454;2023-02-15T06:03:19;4.50;77.60
26821;DHT22;37186;51.394;5.454;2023-02-15T06:06:19;4.50;77.70
26821;DHT22;37186;51.394;5.454;2023-02-15T06:09:20;4.50;77.70
26821;DHT22;37186;51.394;5.454;2023-02-15T06:12:20;4.50;77.70
26821;DHT22;37186;51.394;5.454;2023-02-15T06:15:21;4.40;77.60
26821;DHT22;37186;51.394;5.454;2023-02-15T06:18:22;4.40;77.60
26821;DHT22;37186;51.394;5.454;2023-02-15T06:21:22;4.40;77.60
26821;DHT22;37186;51.394;5.454;2023-02-15T06:24:23;4.40;77.70
26821;DHT22;37186;51.394;5.454;2023-02-15T06:27:23;4.40;77.60
26821;DHT22;37186;51.394;5.454;2023-02-15T06:30:24;4.40;77.60
26821;DHT22;37186;51.394;5.454;2023-02-15T06:33:24;4.40;77.60
26821;DHT22;37186;51.394;5.454;2023-02-15T06:36:25;4.30;77.50
26821;DHT22;37186;51.394;5.454;2023-02-15T06:39:26;4.30;77.50
26821;DHT22;37186;51.394;5.454;2023-02-15T06:42:26;4.30;78.40
26821;DHT22;37186;51.394;5.454;2023-02-15T06:45:27;4.30;77.60
26821;DHT22;37186;51.394;5.454;2023-02-15T06:48:27;4.30;77.60
26821;DHT22;37186;51.394;5.454;2023-02-15T06:51:28;4.30;77.60
26821;DHT22;37186;51.394;5.454;2023-02-15T06:54:28;4.30;77.60
26821;DHT22;37186;51.394;5.454;2023-02-15T06:57:29;4.30;77.60
26821;DHT22;37186;51.394;5.454;2023-02-15T07:00:29;4.20;77.60
26821;DHT22;37186;51.394;5.454;2023-02-15T07:03:30;4.20;77.60
26821;DHT22;37186;51.394;5.454;2023-02-15T07:06:32;4.20;77.60
26821;DHT22;37186;51.394;5.454;2023-02-15T07:09:33;4.20;77.60
26821;DHT22;37186;51.394;5.454;2023-02-15T07:12:34;4.20;77.60
26821;DHT22;37186;51.394;5.454;2023-02-15T07:15:45;4.20;77.60
26821;DHT22;37186;51.394;5.454;2023-02-15T07:18:46;4.20;78.50
26821;DHT22;37186;51.394;5.454;2023-02-15T07:21:47;4.20;77.70
26821;DHT22;37186;51.394;5.454;2023-02-15T07:24:47;4.20;77.70
26821;DHT22;37186;51.394;5.454;2023-02-15T07:27:58;4.20;77.70
26821;DHT22;37186;51.394;5.454;2023-02-15T07:31:01;4.20;77.70
26821;DHT22;37186;51.394;5.454;2023-02-15T07:34:02;4.20;77.70
26821;DHT22;37186;51.394;5.454;2023-02-15T07:37:03;4.20;77.70
26821;DHT22;37186;51.394;5.454;2023-02-15T07:40:05;4.20;77.70
26821;DHT22;37186;51.394;5.454;2023-02-15T07:43:06;4.20;77.80
26821;DHT22;37186;51.394;5.454;2023-02-15T07:46:09;4.20;77.80
26821;DHT22;37186;51.394;5.454;2023-02-15T07:49:10;4.30;77.90
26821;DHT22;37186;51.394;5.454;2023-02-15T07:52:10;4.20;78.60
26821;DHT22;37186;51.394;5.454;2023-02-15T07:55:11;4.20;77.80
26821;DHT22;37186;51.394;5.454;2023-02-15T07:58:13;4.20;77.90
26821;DHT22;37186;51.394;5.454;2023-02-15T08:01:14;4.20;77.90
26821;DHT22;37186;51.394;5.454;2023-02-15T08:04:15;4.20;77.90
26821;DHT22;37186;51.394;5.454;2023-02-15T08:07:15;4.20;78.00
26821;DHT22;37186;51.394;5.454;2023-02-15T08:10:16;4.30;78.00
26821;DHT22;37186;51.394;5.454;2023-02-15T08:13:36;4.20;78.00
26821;DHT22;37186;51.394;5.454;2023-02-15T08:16:54;4.30;78.00
26821;DHT22;37186;51.394;5.454;2023-02-15T08:19:55;4.30;78.10
26821;DHT22;37186;51.394;5.454;2023-02-15T08:22:56;4.30;78.10
26821;DHT22;37186;51.394;5.454;2023-02-15T08:25:59;4.30;78.10
26821;DHT22;37186;51.394;5.454;2023-02-15T08:29:00;4.30;78.10
26821;DHT22;37186;51.394;5.454;2023-02-15T08:32:09;4.40;78.30
26821;DHT22;37186;51.394;5.454;2023-02-15T08:35:10;4.40;78.30
26821;DHT22;37186;51.394;5.454;2023-02-15T08:38:10;4.40;78.30
26821;DHT22;37186;51.394;5.454;2023-02-15T08:44:16;4.50;78.50
26821;DHT22;37186;51.394;5.454;2023-02-15T08:47:16;4.50;78.50
26821;DHT22;37186;51.394;5.454;2023-02-15T08:50:17;4.60;78.60
26821;DHT22;37186;51.394;5.454;2023-02-15T08:53:17;4.60;78.60
26821;DHT22;37186;51.394;5.454;2023-02-15T08:56:24;4.70;78.60
26821;DHT22;37186;51.394;5.454;2023-02-15T08:59:26;4.70;78.70
26821;DHT22;37186;51.394;5.454;2023-02-15T09:02:27;4.70;78.70
26821;DHT22;37186;51.394;5.454;2023-02-15T09:05:27;4.80;78.80
26821;DHT22;37186;51.394;5.454;2023-02-15T09:08:28;4.80;78.80
26821;DHT22;37186;51.394;5.454;2023-02-15T09:11:32;4.90;78.90
26821;DHT22;37186;51.394;5.454;2023-02-15T09:14:33;4.90;78.90
26821;DHT22;37186;51.394;5.454;2023-02-15T09:17:34;5.00;78.90
26821;DHT22;37186;51.394;5.454;2023-02-15T09:20:37;5.00;78.90
26821;DHT22;37186;51.394;5.454;2023-02-15T09:23:37;5.20;79.10
26821;DHT22;37186;51.394;5.454;2023-02-15T09:26:41;5.10;79.10
26821;DHT22;37186;51.394;5.454;2023-02-15T09:29:41;5.20;79.10
26821;DHT22;37186;51.394;5.454;2023-02-15T09:32:42;5.20;79.20
26821;DHT22;37186;51.394;5.454;2023-02-15T09:35:42;5.30;79.20
26821;DHT22;37186;51.394;5.454;2023-02-15T09:38:44;5.30;79.30
26821;DHT22;37186;51.394;5.454;2023-02-15T09:45:30;5.40;79.40
26821;DHT22;37186;51.394;5.454;2023-02-15T09:48:42;5.50;79.50
26821;DHT22;37186;51.394;5.454;2023-02-15T09:52:10;5.60;79.50
26821;DHT22;37186;51.394;5.454;2023-02-15T10:05:25;5.90;79.90
26821;DHT22;37186;51.394;5.454;2023-02-15T10:08:50;6.00;80.00
26821;DHT22;37186;51.394;5.454;2023-02-15T10:15:24;6.10;80.00
26821;DHT22;37186;51.394;5.454;2023-02-15T10:29:03;6.40;80.20
26821;DHT22;37186;51.394;5.454;2023-02-15T10:32:26;6.50;80.30
26821;DHT22;37186;51.394;5.454;2023-02-15T10:36:24;6.60;80.30
26821;DHT22;37186;51.394;5.454;2023-02-15T10:46:53;6.90;80.60
26821;DHT22;37186;51.394;5.454;2023-02-15T10:50:06;6.90;80.50
26821;DHT22;37186;51.394;5.454;2023-02-15T10:59:50;7.20;80.70
26821;DHT22;37186;51.394;5.454;2023-02-15T11:06:19;7.40;80.80
26821;DHT22;37186;51.394;5.454;2023-02-15T11:09:22;7.50;80.80
26821;DHT22;37186;51.394;5.454;2023-02-15T11:12:27;7.50;80.90
26821;DHT22;37186;51.394;5.454;2023-02-15T11:18:53;7.70;81.00
26821;DHT22;37186;51.394;5.454;2023-02-15T11:21:59;7.80;81.10
26821;DHT22;37186;51.394;5.454;2023-02-15T11:25:02;7.90;81.20
26821;DHT22;37186;51.394;5.454;2023-02-15T11:28:06;8.00;81.20
26821;DHT22;37186;51.394;5.454;2023-02-15T11:31:19;8.10;81.10
26821;DHT22;37186;51.394;5.454;2023-02-15T11:34:34;8.20;81.30
26821;DHT22;37186;51.394;5.454;2023-02-15T11:41:21;8.40;81.40
26821;DHT22;37186;51.394;5.454;2023-02-15T11:44:30;8.50;81.70
26821;DHT22;37186;51.394;5.454;2023-02-15T11:47:33;8.70;81.50
26821;DHT22;37186;51.394;5.454;2023-02-15T11:50:33;8.80;81.70
26821;DHT22;37186;51.394;5.454;2023-02-15T11:53:37;8.90;81.80
26821;DHT22;37186;51.394;5.454;2023-02-15T11:56:38;9.00;81.90
26821;DHT22;37186;51.394;5.454;2023-02-15T11:59:42;9.10;81.80
26821;DHT22;37186;51.394;5.454;2023-02-15T12:02:46;9.20;81.80
26821;DHT22;37186;51.394;5.454;2023-02-15T12:06:00;9.40;81.60
26821;DHT22;37186;51.394;5.454;2023-02-15T12:13:11;9.60;81.90
26821;DHT22;37186;51.394;5.454;2023-02-15T12:16:12;9.80;81.60
26821;DHT22;37186;51.394;5.454;2023-02-15T12:19:29;9.90;81.70
26821;DHT22;37186;51.394;5.454;2023-02-15T12:22:33;10.00;81.80
26821;DHT22;37186;51.394;5.454;2023-02-15T12:25:51;10.20;81.80
26821;DHT22;37186;51.394;5.454;2023-02-15T12:28:54;10.30;81.50
26821;DHT22;37186;51.394;5.454;2023-02-15T12:31:58;10.40;81.50
26821;DHT22;37186;51.394;5.454;2023-02-15T12:35:06;10.50;81.80
26821;DHT22;37186;51.394;5.454;2023-02-15T12:41:26;10.80;81.50
26821;DHT22;37186;51.394;5.454;2023-02-15T12:44:29;10.90;81.40
26821;DHT22;37186;51.394;5.454;2023-02-15T12:47:30;11.00;81.50
26821;DHT22;37186;51.394;5.454;2023-02-15T12:50:31;11.10;81.40
26821;DHT22;37186;51.394;5.454;2023-02-15T12:53:35;11.20;81.30
26821;DHT22;37186;51.394;5.454;2023-02-15T12:56:36;11.30;81.40
26821;DHT22;37186;51.394;5.454;2023-02-15T12:59:36;11.40;81.20
26821;DHT22;37186;51.394;5.454;2023-02-15T13:05:43;11.50;80.70
26821;DHT22;37186;51.394;5.454;2023-02-15T13:08:49;11.60;81.80
26821;DHT22;37186;51.394;5.454;2023-02-15T13:11:50;11.60;80.70
26821;DHT22;37186;51.394;5.454;2023-02-15T13:14:52;11.70;81.00
26821;DHT22;37186;51.394;5.454;2023-02-15T13:17:57;11.80;80.90
26821;DHT22;37186;51.394;5.454;2023-02-15T13:21:04;11.80;80.90
26821;DHT22;37186;51.394;5.454;2023-02-15T13:27:28;12.00;80.80
26821;DHT22;37186;51.394;5.454;2023-02-15T13:30:40;12.00;80.90
26821;DHT22;37186;51.394;5.454;2023-02-15T13:33:46;12.10;80.50
26821;DHT22;37186;51.394;5.454;2023-02-15T13:37:01;12.10;80.40
26821;DHT22;37186;51.394;5.454;2023-02-15T13:43:25;12.20;80.50
26821;DHT22;37186;51.394;5.454;2023-02-15T13:46:52;12.30;80.50
26821;DHT22;37186;51.394;5.454;2023-02-15T13:50:03;12.30;80.50
26821;DHT22;37186;51.394;5.454;2023-02-15T13:56:44;12.50;80.50
26821;DHT22;37186;51.394;5.454;2023-02-15T14:00:17;12.50;80.70
26821;DHT22;37186;51.394;5.454;2023-02-15T14:03:56;12.60;80.70
26821;DHT22;37186;51.394;5.454;2023-02-15T14:10:38;12.60;80.30
26821;DHT22;37186;51.394;5.454;2023-02-15T14:17:46;12.70;79.70
26821;DHT22;37186;51.394;5.454;2023-02-15T14:30:56;12.70;80.00
26821;DHT22;37186;51.394;5.454;2023-02-15T14:33:58;12.80;80.00
26821;DHT22;37186;51.394;5.454;2023-02-15T14:36:59;12.80;79.70
26821;DHT22;37186;51.394;5.454;2023-02-15T14:40:11;12.80;79.80
26821;DHT22;37186;51.394;5.454;2023-02-15T14:46:57;12.80;79.70
26821;DHT22;37186;51.394;5.454;2023-02-15T14:50:54;12.80;79.60
26821;DHT22;37186;51.394;5.454;2023-02-15T14:53:48;12.80;79.70
26821;DHT22;37186;51.394;5.454;2023-02-15T15:00:02;12.80;79.60
26821;DHT22;37186;51.394;5.454;2023-02-15T15:03:18;12.80;79.60
26821;DHT22;37186;51.394;5.454;2023-02-15T15:06:40;12.80;79.60
26821;DHT22;37186;51.394;5.454;2023-02-15T15:09:42;12.80;79.60
26821;DHT22;37186;51.394;5.454;2023-02-15T15:12:54;12.80;79.30
26821;DHT22;37186;51.394;5.454;2023-02-15T15:15:54;12.80;79.50
26821;DHT22;37186;51.394;5.454;2023-02-15T15:18:56;12.80;79.50
26821;DHT22;37186;51.394;5.454;2023-02-15T15:22:02;12.80;79.60
26821;DHT22;37186;51.394;5.454;2023-02-15T15:31:44;12.80;79.30
26821;DHT22;37186;51.394;5.454;2023-02-15T15:35:02;12.80;79.30
26821;DHT22;37186;51.394;5.454;2023-02-15T15:45:02;12.80;79.30
26821;DHT22;37186;51.394;5.454;2023-02-15T15:48:25;12.80;79.30
26821;DHT22;37186;51.394;5.454;2023-02-15T15:51:32;12.80;79.30
26821;DHT22;37186;51.394;5.454;2023-02-15T15:54:33;12.80;79.30
26821;DHT22;37186;51.394;5.454;2023-02-15T15:57:38;12.70;79.30
26821;DHT22;37186;51.394;5.454;2023-02-15T16:00:49;12.70;79.30
26821;DHT22;37186;51.394;5.454;2023-02-15T16:03:53;12.70;79.30
26821;DHT22;37186;51.394;5.454;2023-02-15T16:06:54;12.70;79.30
26821;DHT22;37186;51.394;5.454;2023-02-15T16:10:06;12.60;79.20
26821;DHT22;37186;51.394;5.454;2023-02-15T16:13:07;12.70;79.30
26821;DHT22;37186;51.394;5.454;2023-02-15T16:16:07;12.60;79.20
26821;DHT22;37186;51.394;5.454;2023-02-15T16:19:18;12.60;79.20
26821;DHT22;37186;51.394;5.454;2023-02-15T16:22:23;12.50;79.20
26821;DHT22;37186;51.394;5.454;2023-02-15T16:25:39;12.50;79.20
26821;DHT22;37186;51.394;5.454;2023-02-15T16:28:52;12.50;79.20
26821;DHT22;37186;51.394;5.454;2023-02-15T16:32:01;12.40;79.10
26821;DHT22;37186;51.394;5.454;2023-02-15T16:35:03;12.40;79.10
26821;DHT22;37186;51.394;5.454;2023-02-15T16:38:04;12.40;79.10
26821;DHT22;37186;51.394;5.454;2023-02-15T16:41:05;12.30;79.00
26821;DHT22;37186;51.394;5.454;2023-02-15T16:44:16;12.20;79.00
26821;DHT22;37186;51.394;5.454;2023-02-15T16:47:24;12.20;79.00
26821;DHT22;37186;51.394;5.454;2023-02-15T16:50:32;12.10;78.90
26821;DHT22;37186;51.394;5.454;2023-02-15T16:53:33;12.10;78.90
26821;DHT22;37186;51.394;5.454;2023-02-15T16:56:34;12.00;78.90
26821;DHT22;37186;51.394;5.454;2023-02-15T16:59:40;12.00;78.90
26821;DHT22;37186;51.394;5.454;2023-02-15T17:06:02;11.90;79.70
26821;DHT22;37186;51.394;5.454;2023-02-15T17:09:06;11.80;78.90
26821;DHT22;37186;51.394;5.454;2023-02-15T17:12:09;11.80;78.90
26821;DHT22;37186;51.394;5.454;2023-02-15T17:15:33;11.70;78.80
26821;DHT22;37186;51.394;5.454;2023-02-15T17:18:44;11.70;78.80
26821;DHT22;37186;51.394;5.454;2023-02-15T17:21:51;11.70;78.80
26821;DHT22;37186;51.394;5.454;2023-02-15T17:25:01;11.60;78.80
26821;DHT22;37186;51.394;5.454;2023-02-15T17:28:01;11.50;78.80
26821;DHT22;37186;51.394;5.454;2023-02-15T17:31:06;11.50;78.70
26821;DHT22;37186;51.394;5.454;2023-02-15T17:37:48;11.40;78.80
26821;DHT22;37186;51.394;5.454;2023-02-15T17:40:49;11.30;78.80
26821;DHT22;37186;51.394;5.454;2023-02-15T17:43:49;11.20;78.80
26821;DHT22;37186;51.394;5.454;2023-02-15T17:46:50;11.20;78.80
26821;DHT22;37186;51.394;5.454;2023-02-15T17:49:51;11.20;78.90
26821;DHT22;37186;51.394;5.454;2023-02-15T17:52:53;11.10;78.80
26821;DHT22;37186;51.394;5.454;2023-02-15T17:55:54;11.00;78.70
26821;DHT22;37186;51.394;5.454;2023-02-15T17:58:55;11.00;78.70
26821;DHT22;37186;51.394;5.454;2023-02-15T18:01:55;11.00;78.80
26821;DHT22;37186;51.394;5.454;2023-02-15T18:05:15;10.90;78.80
26821;DHT22;37186;51.394;5.454;2023-02-15T18:08:34;10.90;78.80
26821;DHT22;37186;51.394;5.454;2023-02-15T18:11:53;10.80;78.80
26821;DHT22;37186;51.394;5.454;2023-02-15T18:14:55;10.80;78.80
26821;DHT22;37186;51.394;5.454;2023-02-15T18:17:56;10.70;78.80
26821;DHT22;37186;51.394;5.454;2023-02-15T18:20:56;10.70;78.80
26821;DHT22;37186;51.394;5.454;2023-02-15T18:23:57;10.60;78.80
26821;DHT22;37186;51.394;5.454;2023-02-15T18:26:57;10.60;78.80
26821;DHT22;37186;51.394;5.454;2023-02-15T18:29:58;10.50;78.60
26821;DHT22;37186;51.394;5.454;2023-02-15T18:32:58;10.50;78.70
26821;DHT22;37186;51.394;5.454;2023-02-15T18:36:01;10.50;78.60
26821;DHT22;37186;51.394;5.454;2023-02-15T18:39:02;10.40;78.80
26821;DHT22;37186;51.394;5.454;2023-02-15T18:42:03;10.40;78.80
26821;DHT22;37186;51.394;5.454;2023-02-15T18:45:19;10.40;78.80
26821;DHT22;37186;51.394;5.454;2023-02-15T18:48:20;10.30;78.80
26821;DHT22;37186;51.394;5.454;2023-02-15T18:51:22;10.30;78.80
26821;DHT22;37186;51.394;5.454;2023-02-15T18:54:23;10.30;78.90
26821;DHT22;37186;51.394;5.454;2023-02-15T18:57:24;10.20;78.80
26821;DHT22;37186;51.394;5.454;2023-02-15T19:00:29;10.20;78.80
26821;DHT22;37186;51.394;5.454;2023-02-15T19:03:29;10.20;78.80
26821;DHT22;37186;51.394;5.454;2023-02-15T19:06:30;10.10;78.80
26821;DHT22;37186;51.394;5.454;2023-02-15T19:09:30;10.10;78.80
26821;DHT22;37186;51.394;5.454;2023-02-15T19:12:32;10.10;78.80
26821;DHT22;37186;51.394;5.454;2023-02-15T19:15:33;10.10;78.80
26821;DHT22;37186;51.394;5.454;2023-02-15T19:18:33;10.10;78.80
26821;DHT22;37186;51.394;5.454;2023-02-15T19:21:34;10.00;78.80
26821;DHT22;37186;51.394;5.454;2023-02-15T19:24:39;10.00;78.80
26821;DHT22;37186;51.394;5.454;2023-02-15T19:27:41;9.90;78.80
26821;DHT22;37186;51.394;5.454;2023-02-15T19:30:41;9.90;78.80
26821;DHT22;37186;51.394;5.454;2023-02-15T19:33:43;9.90;78.80
26821;DHT22;37186;51.394;5.454;2023-02-15T19:36:45;9.90;78.80
26821;DHT22;37186;51.394;5.454;2023-02-15T19:39:46;9.80;78.80
26821;DHT22;37186;51.394;5.454;2023-02-15T19:42:48;9.80;78.80
26821;DHT22;37186;51.394;5.454;2023-02-15T19:45:48;9.80;78.80
26821;DHT22;37186;51.394;5.454;2023-02-15T19:48:52;9.70;78.80
26821;DHT22;37186;51.394;5.454;2023-02-15T19:51:53;9.70;78.60
26821;DHT22;37186;51.394;5.454;2023-02-15T19:54:54;9.70;78.70
26821;DHT22;37186;51.394;5.454;2023-02-15T19:57:56;9.70;78.60
26821;DHT22;37186;51.394;5.454;2023-02-15T20:00:57;9.60;78.50
26821;DHT22;37186;51.394;5.454;2023-02-15T20:03:57;9.60;78.70
26821;DHT22;37186;51.394;5.454;2023-02-15T20:07:00;9.60;78.80
26821;DHT22;37186;51.394;5.454;2023-02-15T20:10:02;9.50;78.70
26821;DHT22;37186;51.394;5.454;2023-02-15T20:13:02;9.50;78.80
26821;DHT22;37186;51.394;5.454;2023-02-15T20:16:03;9.50;78.80
26821;DHT22;37186;51.394;5.454;2023-02-15T20:19:07;9.50;78.80
26821;DHT22;37186;51.394;5.454;2023-02-15T20:22:22;9.40;78.80
26821;DHT22;37186;51.394;5.454;2023-02-15T20:25:28;9.40;78.60
26821;DHT22;37186;51.394;5.454;2023-02-15T20:28:30;9.40;78.60
26821;DHT22;37186;51.394;5.454;2023-02-15T20:31:31;9.40;78.80
26821;DHT22;37186;51.394;5.454;2023-02-15T20:34:32;9.30;78.80
26821;DHT22;37186;51.394;5.454;2023-02-15T20:37:32;9.30;78.80
26821;DHT22;37186;51.394;5.454;2023-02-15T20:40:34;9.30;78.60
26821;DHT22;37186;51.394;5.454;2023-02-15T20:43:34;9.30;78.80
26821;DHT22;37186;51.394;5.454;2023-02-15T20:46:35;9.30;78.70
26821;DHT22;37186;51.394;5.454;2023-02-15T20:49:35;9.30;78.80
26821;DHT22;37186;51.394;5.454;2023-02-15T20:52:45;9.30;78.60
26821;DHT22;37186;51.394;5.454;2023-02-15T20:55:46;9.20;78.80
26821;DHT22;37186;51.394;5.454;2023-02-15T20:58:47;9.20;78.60
26821;DHT22;37186;51.394;5.454;2023-02-15T21:01:50;9.20;79.00
26821;DHT22;37186;51.394;5.454;2023-02-15T21:04:50;9.20;78.80
26821;DHT22;37186;51.394;5.454;2023-02-15T21:07:52;9.20;78.90
26821;DHT22;37186;51.394;5.454;2023-02-15T21:10:53;9.20;78.80
26821;DHT22;37186;51.394;5.454;2023-02-15T21:13:53;9.10;78.60
26821;DHT22;37186;51.394;5.454;2023-02-15T21:16:54;9.10;78.70
26821;DHT22;37186;51.394;5.454;2023-02-15T21:19:54;9.10;78.70
26821;DHT22;37186;51.394;5.454;2023-02-15T21:22:57;9.10;78.80
26821;DHT22;37186;51.394;5.454;2023-02-15T21:25:59;9.10;78.80
26821;DHT22;37186;51.394;5.454;2023-02-15T21:28:59;9.10;78.70
26821;DHT22;37186;51.394;5.454;2023-02-15T21:32:01;9.00;78.70
26821;DHT22;37186;51.394;5.454;2023-02-15T21:35:03;9.00;78.60
26821;DHT22;37186;51.394;5.454;2023-02-15T21:38:05;9.00;78.70
26821;DHT22;37186;51.394;5.454;2023-02-15T21:41:17;9.00;78.70
26821;DHT22;37186;51.394;5.454;2023-02-15T21:44:37;9.00;78.70
26821;DHT22;37186;51.394;5.454;2023-02-15T21:47:56;9.00;78.70
26821;DHT22;37186;51.394;5.454;2023-02-15T21:50:57;8.90;78.70
26821;DHT22;37186;51.394;5.454;2023-02-15T21:54:17;8.90;78.60